Submittal Forms
Current Contests
Recent Contests

Club Activity Tracker - Carolina DX Association (from list of calls managed by W1AJT)

Recent postings for the selected club or group are listed below. Other than the call used, all calls listed are only those associated with the club or group. Click on a call to see the details of the posting.
Status Key: new=new posting, update=update prior posting, move=change club/group, delete=delete prior posting.

Sort by   for past

TimestampCallContestClassPowerOpTimeScoreStatus
2021-05-14 23:08:20KS4SCWopsTSingle OpLP.5225new6420
2021-05-12 20:03:02W3SACWopsTSingle OpLP0:55676new6420
2021-05-12 19:41:53K4ESECWopsTSingle OpLP:30400new6420
2021-05-12 14:05:01W3SACWopsTSingle OpLP0:47400new6419
2021-05-09 12:33:12W1AJT(VE3UTT)Volta RTTYSOAB-6HP5.57,327,488new6411
2021-05-08 23:26:59WB4CWArQPSOMixedHP2.41,055new6413
2021-05-07 03:06:49KS4SCWopsTSingle OpLP0.5289new6402
2021-05-06 03:32:32K4ESECWopsTSingle OpLP:27400new6404
2021-05-05 20:34:59W1AJT(VE3UTT)CWopsTSingle OpHP0:25784new6403
2021-05-05 18:46:52W1AJT(VE3UTT)CWopsTSingle OpHP116,641new6402
 
2021-05-03 13:53:06K2SDNewEngQPSingle OpHP5.4510,810new6397
2021-05-03 13:21:44K2SD7QPSO(A)MixedHP4.510,034new6394
2021-05-03 12:51:55K6RMNewEngQPSingle OpLP1.5768new6397
2021-05-03 11:06:28W1AJT(VE3UTT)NewEngQPSingle OpHP4.522,774new6397
2021-05-03 10:57:37W1AJT(VE3UTT)InQPSingle OpHP11,040new6395
2021-05-03 10:54:31W1AJT(VE3UTT)DeQPSingle OpHP0.5300new6396
2021-05-03 10:49:48W1AJT(VE3UTT)7QPSO(A)CWHP4.535,280new6394
2021-05-03 08:46:47WZ4MNewEngQPSingle OpLP10,496new6397
2021-05-03 08:46:01WZ4MInQPSingle OpLP510new6395
2021-05-03 08:44:23WZ4M7QPSOCWLP1,872new6394
 
2021-05-03 00:42:36W3SANewEngQPSingle OpHP2:533,712new6397
2021-05-03 00:13:11N4IJNewEngQPSingle OpLP1225,700new6397
2021-05-02 19:22:48WB4CWNewEngQPSingle OpHP27,524new6397
2021-05-02 19:09:39WB4CW7QPSOMixedHP.513new6394
2021-04-28 21:16:03W1AJT(VE3UTT)CWopsTSingle OpHP0:25625new6385
2021-04-28 14:04:46K4ESECWopsTSingle OpLP:42676new6384
2021-04-27 02:43:37KS4SFlQPSOABMixedLP55,432new6375
2021-04-26 23:31:07W4YN432SprngSprntSingle OpLP2.5120new6367
2021-04-26 12:06:53K2SDFlQPSOABMixedLP78,823new6375
2021-04-26 00:04:45W3GQFlQPSOAB(A)CWHP46,734new6375
 
2021-04-25 23:42:33W1AJT(VE3UTT)FlQPSOAB(A)MixedHP9.542,954new6375
2021-04-25 22:04:38W3OAFlQPSOAB(A)MixedLP5.1812,152new6375
2021-04-25 21:15:51W3SAFlQPSOABCWHP2:292,914new6375
2021-04-25 17:32:14WB4CWFlQPSOABMixedHP24:5611,682new6375
2021-04-23 19:56:43AA4ZZ432SprngSprntSingle OpHP4672new6367
2021-04-22 13:01:27K4LY432SprngSprntSingle OpLP4208new6367
2021-04-21 20:35:37W1AJT(VE3UTT)CWopsTSingle OpHP0:251,936new6365
2021-04-21 15:42:32W1AJT(VE3UTT)CWopsTSingle OpHP0:5712,996new6364
2021-04-21 13:20:43K4ESECWopsTSingle OpLP:15100new6364
2021-04-19 18:17:44K2SDCQMM DXSOSB/20HP43,187new6356
 
2021-04-19 17:38:40K2SDOnQPSO MixedHP63,552new5642
2021-04-19 13:52:39W3GQMiQPSingle OpHP.5144new6357
2021-04-19 13:48:40W3GQOnQPSO CWHP.15168new5642
2021-04-19 13:44:55W3GQCQMM DXSOABHP5.427,189new6356
2021-04-19 11:51:31W1AJT(VE3UTT)CQMM DXSOABHP413,616new6356
2021-04-19 00:16:04K3AJCQMM DXM/SHP361,615,772new6356
 (K3WA)
2021-04-18 18:26:44W1AJT(VE3UTT)OnQPSO MixedHP836,292new5642
2021-04-15 22:17:56KS4SGaQPSingle OpMixedLP86,050new6336
2021-04-15 15:59:24K4ESECWopsTSingle OpLP:23400new6347
2021-04-15 11:06:39N1GC222SprngSprntSingle OpHP:2388new